createdAt,value
2018-11-01T00:01:58.184Z,96092.40
2018-11-01T00:04:26.664Z,96094.73
2018-11-01T00:06:55.165Z,96089.65
2018-11-01T00:09:23.648Z,96091.37
2018-11-01T00:11:52.185Z,96088.23
2018-11-01T00:14:20.675Z,96079.66
2018-11-01T00:16:49.171Z,96084.39
2018-11-01T00:19:17.696Z,96070.48
2018-11-01T00:21:46.195Z,96081.41
2018-11-01T00:24:14.770Z,96093.48
2018-11-01T00:26:43.283Z,96106.00
2018-11-01T00:29:12.178Z,96099.27
2018-11-01T00:31:40.694Z,96104.05
2018-11-01T00:34:09.211Z,96106.60
2018-11-01T00:36:37.682Z,96108.02
2018-11-01T00:39:09.313Z,96117.56
2018-11-01T00:41:38.539Z,96123.48
2018-11-01T00:44:07.731Z,96125.01
2018-11-01T00:46:36.322Z,96131.85
2018-11-01T00:49:04.973Z,96130.91
2018-11-01T00:51:33.930Z,96123.81
2018-11-01T00:54:02.548Z,96124.97
2018-11-01T00:56:31.143Z,96115.46
2018-11-01T00:58:59.875Z,96110.69
2018-11-01T01:01:28.374Z,96118.84
2018-11-01T01:03:58.282Z,96110.61
2018-11-01T01:06:26.774Z,96105.36
2018-11-01T01:08:56.343Z,96100.84
2018-11-01T01:11:24.826Z,96103.52
2018-11-01T01:13:53.452Z,96087.72
2018-11-01T01:16:21.930Z,96092.61
2018-11-01T01:18:50.456Z,96090.28
2018-11-01T01:21:18.985Z,96087.95
2018-11-01T01:23:47.481Z,96091.75
2018-11-01T01:26:16.048Z,96085.63
2018-11-01T01:28:44.595Z,96083.72
2018-11-01T01:31:13.111Z,96072.70
2018-11-01T01:33:48.053Z,96067.67
2018-11-01T01:36:16.545Z,96058.64
2018-11-01T01:38:45.025Z,96058.41
2018-11-01T01:41:13.519Z,96055.97
2018-11-01T01:43:42.014Z,96044.02
2018-11-01T01:46:10.506Z,96035.88
2018-11-01T01:48:39.015Z,95903.13
2018-11-01T01:51:07.519Z,96035.33
2018-11-01T01:53:36.019Z,96031.44
2018-11-01T01:56:04.599Z,96025.94
2018-11-01T01:58:33.090Z,96026.27
2018-11-01T02:01:01.597Z,96024.41
2018-11-01T02:03:30.100Z,96018.35
2018-11-01T02:05:58.610Z,96011.34
2018-11-01T02:08:27.126Z,96012.02
2018-11-01T02:10:55.627Z,96013.89
2018-11-01T02:13:24.127Z,96014.68
2018-11-01T02:15:52.627Z,96011.67
2018-11-01T02:18:21.139Z,96005.29
2018-11-01T02:20:49.646Z,96003.11
2018-11-01T02:23:18.192Z,95998.48
2018-11-01T02:25:46.677Z,96006.94
2018-11-01T02:28:16.643Z,95999.05
2018-11-01T02:30:45.178Z,96008.93
2018-11-01T02:33:14.036Z,96014.94
2018-11-01T02:35:42.558Z,96005.24
2018-11-01T02:38:11.156Z,96009.90
2018-11-01T02:40:39.577Z,96009.89
2018-11-01T02:43:08.100Z,96011.55
2018-11-01T02:45:36.601Z,96008.30
2018-11-01T02:48:05.242Z,96010.06
2018-11-01T02:53:26.774Z,96013.75
2018-11-01T02:55:55.258Z,96024.06
2018-11-01T02:58:23.747Z,96026.16
2018-11-01T03:00:52.264Z,96032.89
2018-11-01T03:03:20.799Z,96035.22
2018-11-01T03:05:49.291Z,96031.41
2018-11-01T03:08:17.805Z,96039.00
2018-11-01T03:10:46.300Z,96048.42
2018-11-01T03:13:14.791Z,96044.81
2018-11-01T03:15:43.291Z,96039.67
2018-11-01T03:18:11.784Z,96037.69
2018-11-01T03:20:40.342Z,96050.88
2018-11-01T03:23:08.906Z,96041.34
2018-11-01T03:25:37.406Z,96046.23
2018-11-01T03:28:06.116Z,96048.30
2018-11-01T03:30:34.590Z,96040.55
2018-11-01T03:33:03.495Z,96040.18
2018-11-01T03:35:32.022Z,96042.09
2018-11-01T03:38:00.610Z,96045.81
2018-11-01T03:40:29.087Z,96032.34
2018-11-01T03:42:57.592Z,96025.23
2018-11-01T03:45:26.120Z,96012.13
2018-11-01T03:47:54.594Z,96016.78
2018-11-01T03:50:23.085Z,96020.32
2018-11-01T03:52:51.598Z,96017.31
2018-11-01T03:55:20.118Z,96010.70
2018-11-01T03:57:48.698Z,96004.20
2018-11-01T04:00:17.323Z,96001.69
2018-11-01T04:02:47.553Z,96013.63
2018-11-01T04:05:16.342Z,96019.98
2018-11-01T04:07:44.826Z,96014.65
2018-11-01T04:10:13.635Z,96021.89
2018-11-01T04:12:42.146Z,96020.61
2018-11-01T04:15:13.536Z,96018.69
2018-11-01T04:17:42.049Z,96018.80
2018-11-01T04:20:11.853Z,96016.05
2018-11-01T04:22:40.978Z,96025.00
2018-11-01T04:25:09.551Z,96022.90
2018-11-01T04:27:38.060Z,96012.67
2018-11-01T04:30:07.218Z,96004.19
2018-11-01T04:32:35.739Z,96005.27
2018-11-01T04:35:04.450Z,96006.74
2018-11-01T04:37:32.939Z,95999.08
2018-11-01T04:40:01.434Z,95993.38
2018-11-01T04:42:29.910Z,95990.68
2018-11-01T04:44:58.466Z,95996.72
2018-11-01T04:47:27.035Z,95989.41
2018-11-01T04:49:55.635Z,95981.38
2018-11-01T04:52:24.123Z,95975.33
2018-11-01T04:54:52.629Z,95977.06
2018-11-01T04:57:21.115Z,95969.63
2018-11-01T04:59:51.089Z,95969.59
2018-11-01T05:02:19.570Z,95965.58
2018-11-01T05:04:48.144Z,95957.70
2018-11-01T05:07:16.611Z,95944.14
2018-11-01T05:09:45.094Z,95953.78
2018-11-01T05:12:13.607Z,95971.17
2018-11-01T05:14:42.083Z,95977.67
2018-11-01T05:17:10.580Z,95977.47
2018-11-01T05:19:39.063Z,95967.60
2018-11-01T05:22:07.565Z,95935.12
2018-11-01T05:24:36.145Z,95937.45
2018-11-01T05:27:04.878Z,95956.26
2018-11-01T05:29:33.370Z,95968.28
2018-11-01T05:32:02.323Z,95956.64
2018-11-01T05:34:30.845Z,95970.80
2018-11-01T05:36:59.306Z,95962.69
2018-11-01T05:39:27.810Z,95961.30
2018-11-01T05:41:56.319Z,95976.39
2018-11-01T05:44:24.831Z,95965.61
2018-11-01T05:46:53.348Z,95959.83
2018-11-01T05:49:21.830Z,95974.21
2018-11-01T05:51:50.373Z,95978.86
2018-11-01T05:54:18.867Z,95976.77
2018-11-01T05:56:47.358Z,95968.66
2018-11-01T05:59:15.834Z,95951.95
2018-11-01T06:01:50.731Z,95961.33
2018-11-01T06:04:19.252Z,95977.06
2018-11-01T06:06:47.767Z,95984.19
2018-11-01T06:09:21.571Z,95981.45
2018-11-01T06:11:50.239Z,95974.63
2018-11-01T06:14:19.086Z,95969.74
2018-11-01T06:16:47.622Z,95965.12
2018-11-01T06:19:16.482Z,95974.44
2018-11-01T06:21:44.975Z,95974.06
2018-11-01T06:24:13.593Z,95977.77
2018-11-01T06:26:42.346Z,95971.84
2018-11-01T06:29:10.835Z,95967.91
2018-11-01T06:31:39.319Z,95977.67
2018-11-01T06:34:10.559Z,95984.64
2018-11-01T06:36:39.082Z,95978.34
2018-11-01T06:39:08.646Z,95976.69
2018-11-01T06:41:37.162Z,95978.94
2018-11-01T06:44:06.015Z,95984.83
2018-11-01T06:46:34.522Z,95993.88
2018-11-01T06:49:03.027Z,96002.25
2018-11-01T06:51:31.518Z,96011.19
2018-11-01T06:54:00.081Z,96023.73
2018-11-01T06:56:28.697Z,96027.89
2018-11-01T06:58:59.028Z,96029.17
2018-11-01T07:01:27.558Z,96006.23
2018-11-01T07:03:56.550Z,96009.50
2018-11-01T07:06:25.036Z,96017.31
2018-11-01T07:08:53.546Z,96030.04
2018-11-01T07:11:22.054Z,96023.84
2018-11-01T07:13:50.563Z,96024.22
2018-11-01T07:16:19.067Z,96029.48
2018-11-01T07:18:47.562Z,96006.94
2018-11-01T07:21:16.066Z,96018.47
2018-11-01T07:23:44.563Z,96018.35
2018-11-01T07:26:13.269Z,96009.30
2018-11-01T07:28:41.578Z,96000.88
2018-11-01T07:31:10.079Z,95999.59
2018-11-01T07:33:38.574Z,96013.24
2018-11-01T07:36:07.129Z,96007.19
2018-11-01T07:38:35.667Z,96007.87
2018-11-01T07:41:04.339Z,96010.66
2018-11-01T07:43:32.963Z,96005.55
2018-11-01T07:46:01.461Z,95991.37
2018-11-01T07:48:29.982Z,95993.47
2018-11-01T07:50:58.450Z,96004.41
2018-11-01T07:53:27.288Z,96007.20
2018-11-01T07:55:55.789Z,95997.31
2018-11-01T07:58:24.331Z,95994.06
2018-11-01T08:00:52.802Z,95993.72
2018-11-01T08:03:21.268Z,95992.80
2018-11-01T08:05:49.823Z,95981.05
2018-11-01T08:08:18.230Z,95978.37
2018-11-01T08:10:46.710Z,95974.06
2018-11-01T08:13:15.191Z,95978.13
2018-11-01T08:15:43.686Z,95985.59
2018-11-01T08:18:12.194Z,95997.09
2018-11-01T08:20:40.750Z,95996.98
2018-11-01T08:23:09.227Z,95995.93
2018-11-01T08:25:37.748Z,96005.25
2018-11-01T08:28:06.413Z,95996.99
2018-11-01T08:30:34.940Z,96004.08
2018-11-01T08:33:03.929Z,95987.56
2018-11-01T08:35:32.446Z,95975.80
2018-11-01T08:38:00.919Z,95962.79
2018-11-01T08:40:47.706Z,95954.28
2018-11-01T08:43:16.218Z,95932.22
2018-11-01T08:45:44.819Z,95951.81
2018-11-01T08:48:13.307Z,95956.36
2018-11-01T08:50:41.800Z,95961.11
2018-11-01T08:53:10.300Z,95957.64
2018-11-01T08:55:38.838Z,95962.39
2018-11-01T08:58:07.363Z,95963.20
2018-11-01T09:00:35.857Z,95972.69
2018-11-01T09:03:04.421Z,95980.76
2018-11-01T09:05:32.919Z,95983.94
2018-11-01T09:08:01.453Z,95983.33
2018-11-01T09:10:29.940Z,95990.88
2018-11-01T09:12:58.421Z,95996.82
2018-11-01T09:15:26.950Z,96000.66
2018-11-01T09:17:55.442Z,95999.70
2018-11-01T09:20:23.940Z,96004.33
2018-11-01T09:22:52.450Z,96003.11
2018-11-01T09:25:20.930Z,96006.75
2018-11-01T09:27:51.241Z,95996.22
2018-11-01T09:30:19.734Z,95982.60
2018-11-01T09:32:48.264Z,95972.67
2018-11-01T09:35:16.842Z,95966.42
2018-11-01T09:37:45.323Z,95961.16
2018-11-01T09:40:15.129Z,95961.83
2018-11-01T09:42:44.197Z,95980.07
2018-11-01T09:45:13.206Z,95970.95
2018-11-01T09:47:42.470Z,95952.34
2018-11-01T09:50:11.505Z,95947.52
2018-11-01T09:52:40.591Z,95944.03
2018-11-01T09:55:09.183Z,95943.90
2018-11-01T09:57:37.794Z,95939.78
2018-11-01T10:00:08.849Z,95955.14
2018-11-01T10:02:37.335Z,95951.52
2018-11-01T10:05:07.464Z,95952.72
2018-11-01T10:07:36.072Z,95953.81
2018-11-01T10:10:05.374Z,95948.75
2018-11-01T10:12:33.875Z,95938.59
2018-11-01T10:15:02.463Z,95933.90
2018-11-01T10:17:31.412Z,95933.13
2018-11-01T10:19:59.531Z,95929.76
2018-11-01T10:22:28.110Z,95935.00
2018-11-01T10:24:56.531Z,95945.09
2018-11-01T10:27:25.093Z,95950.61
2018-11-01T10:29:53.586Z,95926.18
2018-11-01T10:32:22.084Z,95921.05
2018-11-01T10:34:50.580Z,95934.84
2018-11-01T10:37:19.073Z,95933.47
2018-11-01T10:39:47.571Z,95958.09
2018-11-01T10:42:16.069Z,95961.20
2018-11-01T10:44:44.555Z,95952.97
2018-11-01T10:47:13.070Z,95942.77
2018-11-01T10:49:41.598Z,95944.49
2018-11-01T10:52:10.118Z,95928.36
2018-11-01T10:54:38.971Z,95914.12
2018-11-01T10:57:07.511Z,95912.84
2018-11-01T10:59:36.022Z,95903.16
2018-11-01T11:02:10.428Z,95898.93
2018-11-01T11:04:38.999Z,95900.20
2018-11-01T11:07:07.507Z,95893.05
2018-11-01T11:09:36.019Z,95905.70
2018-11-01T11:12:04.871Z,95902.94
2018-11-01T11:14:33.405Z,95912.12
2018-11-01T11:17:01.986Z,95901.31
2018-11-01T11:19:30.479Z,95928.59
2018-11-01T11:21:59.010Z,95934.38
2018-11-01T11:24:27.491Z,95944.96
2018-11-01T11:26:56.015Z,95932.73
2018-11-01T11:29:24.546Z,95941.59
2018-11-01T11:31:53.040Z,95931.33
2018-11-01T11:34:21.547Z,95921.61
2018-11-01T11:36:50.043Z,95923.08
2018-11-01T11:39:18.698Z,95917.81
2018-11-01T11:41:47.066Z,95909.55
2018-11-01T11:44:15.568Z,95917.91
2018-11-01T11:46:44.362Z,95929.66
2018-11-01T11:49:12.942Z,95929.62
2018-11-01T11:51:41.420Z,95930.52
2018-11-01T11:54:09.909Z,95929.48
2018-11-01T11:56:38.415Z,95912.62
2018-11-01T11:59:07.342Z,95914.48
2018-11-01T12:01:35.844Z,95923.27
2018-11-01T12:04:04.376Z,95916.31
2018-11-01T12:06:32.882Z,95907.92
2018-11-01T12:09:01.384Z,95887.59
2018-11-01T12:11:30.293Z,95875.34
2018-11-01T12:13:59.634Z,95874.81
2018-11-01T12:16:28.103Z,95879.88
2018-11-01T12:18:59.390Z,95873.69
2018-11-01T12:21:27.890Z,95878.10
2018-11-01T12:26:48.815Z,95884.39
2018-11-01T12:29:17.330Z,95882.27
2018-11-01T12:31:45.823Z,95878.93
2018-11-01T12:34:14.658Z,95865.02
2018-11-01T12:36:43.287Z,95867.45
2018-11-01T12:39:11.798Z,95871.21
2018-11-01T12:41:40.424Z,95861.19
2018-11-01T12:44:08.863Z,95851.21
2018-11-01T12:46:37.391Z,95856.73
2018-11-01T12:49:06.582Z,95858.00
2018-11-01T12:51:35.111Z,95850.05
2018-11-01T12:54:03.661Z,95855.58
2018-11-01T12:56:32.262Z,95868.70
2018-11-01T12:59:00.746Z,95879.76
2018-11-01T13:01:29.315Z,95879.76
2018-11-01T13:04:00.982Z,95874.32
2018-11-01T13:06:29.470Z,95853.41
2018-11-01T13:08:58.722Z,95862.97
2018-11-01T13:11:27.227Z,95864.67
2018-11-01T13:13:57.015Z,95866.14
2018-11-01T13:16:25.516Z,95857.77
2018-11-01T13:18:54.345Z,95861.31
2018-11-01T13:21:22.843Z,95849.30
2018-11-01T13:23:51.332Z,95842.98
2018-11-01T13:26:19.879Z,95857.77
2018-11-01T13:28:48.380Z,95664.59
2018-11-01T13:31:17.547Z,95875.75
2018-11-01T13:33:46.126Z,95871.34
2018-11-01T13:36:14.655Z,95865.08
2018-11-01T13:38:43.165Z,95867.45
2018-11-01T13:44:04.213Z,95861.66
2018-11-01T13:46:33.080Z,95857.72
2018-11-01T13:49:01.870Z,95839.40
2018-11-01T13:51:30.840Z,95828.61
2018-11-01T13:53:59.861Z,95833.39
2018-11-01T13:56:28.444Z,95828.60
2018-11-01T13:58:57.370Z,95829.64
2018-11-01T14:01:26.508Z,95830.30
2018-11-01T14:03:55.246Z,95840.48
2018-11-01T14:06:23.871Z,95845.69
2018-11-01T14:08:52.374Z,95845.05
2018-11-01T14:11:20.883Z,95844.29
2018-11-01T14:13:49.596Z,95857.02
2018-11-01T14:16:18.058Z,95871.49
2018-11-01T14:18:46.853Z,95865.91
2018-11-01T14:21:15.438Z,95866.03
2018-11-01T14:23:43.969Z,95864.48
2018-11-01T14:26:13.347Z,95875.27
2018-11-01T14:28:42.838Z,95867.91
2018-11-01T14:31:11.458Z,95875.69
2018-11-01T14:33:40.253Z,95884.65
2018-11-01T14:36:09.226Z,95881.75
2018-11-01T14:44:23.011Z,95863.02
2018-11-01T14:46:51.511Z,95864.66
2018-11-01T14:49:20.012Z,95860.31
2018-11-01T14:51:49.298Z,95858.96
2018-11-01T14:54:18.876Z,95849.63
2018-11-01T14:56:47.773Z,95849.45
2018-11-01T14:59:15.266Z,95852.98
2018-11-01T15:01:43.415Z,95843.62
2018-11-01T15:04:11.906Z,95852.58
2018-11-01T15:06:40.469Z,95854.87
2018-11-01T15:09:10.715Z,95853.06
2018-11-01T15:11:39.221Z,95848.88
2018-11-01T15:14:07.878Z,95858.82
2018-11-01T15:16:36.736Z,95865.61
2018-11-01T15:19:05.787Z,95875.53
2018-11-01T15:21:34.264Z,95871.71
2018-11-01T15:24:02.798Z,95869.09
2018-11-01T15:26:31.326Z,95878.13
2018-11-01T15:29:00.658Z,95883.27
2018-11-01T15:31:29.167Z,95874.41
2018-11-01T15:33:59.054Z,95876.52
2018-11-01T15:36:27.519Z,95886.44
2018-11-01T15:38:56.573Z,95879.00
2018-11-01T15:41:25.071Z,95857.27
2018-11-01T15:43:53.574Z,95847.63
2018-11-01T15:46:22.156Z,95851.00
2018-11-01T15:48:50.756Z,95856.53
2018-11-01T15:51:19.326Z,95858.33
2018-11-01T15:53:47.958Z,95861.89
2018-11-01T15:56:16.525Z,95867.55
2018-11-01T15:58:45.049Z,95864.80
2018-11-01T16:01:13.635Z,95859.16
2018-11-01T16:03:42.289Z,95849.27
2018-11-01T16:06:10.926Z,95863.20
2018-11-01T16:08:39.462Z,95865.62
2018-11-01T16:11:08.195Z,95869.67
2018-11-01T16:13:37.067Z,95868.05
2018-11-01T16:16:05.701Z,95863.00
2018-11-01T16:18:34.218Z,95864.16
2018-11-01T16:21:03.131Z,95865.28
2018-11-01T16:23:31.684Z,95866.51
2018-11-01T16:26:00.342Z,95883.97
2018-11-01T16:28:29.127Z,95885.08
2018-11-01T16:30:57.687Z,95882.34
2018-11-01T16:33:26.213Z,95896.66
2018-11-01T16:35:54.744Z,95883.90
2018-11-01T16:38:23.259Z,95868.58
2018-11-01T16:40:51.818Z,95868.56
2018-11-01T16:43:20.330Z,95866.95
2018-11-01T16:45:48.835Z,95866.92
2018-11-01T16:48:17.371Z,95876.09
2018-11-01T16:50:45.897Z,95883.38
2018-11-01T16:53:14.408Z,95885.63
2018-11-01T16:55:42.949Z,95885.94
2018-11-01T16:58:11.447Z,95879.63
2018-11-01T17:00:40.089Z,95877.67
2018-11-01T17:03:11.464Z,95875.16
2018-11-01T17:05:40.054Z,95887.29
2018-11-01T17:08:08.607Z,95884.05
2018-11-01T17:10:37.126Z,95884.70
2018-11-01T17:13:05.630Z,95884.05
2018-11-01T17:15:34.494Z,95875.48
2018-11-01T17:18:03.046Z,95874.50
2018-11-01T17:20:31.665Z,95873.81
2018-11-01T17:23:00.189Z,95872.52
2018-11-01T17:25:28.738Z,95878.03
2018-11-01T17:27:57.279Z,95872.23
2018-11-01T17:30:25.789Z,95874.75
2018-11-01T17:32:56.456Z,95883.45
2018-11-01T17:35:25.111Z,95876.17
2018-11-01T17:37:53.823Z,95873.74
2018-11-01T17:40:23.050Z,95875.31
2018-11-01T17:42:51.582Z,95864.39
2018-11-01T17:45:20.167Z,95859.83
2018-11-01T17:47:48.834Z,95855.01
2018-11-01T17:50:17.806Z,95846.92
2018-11-01T17:52:46.362Z,95835.97
2018-11-01T17:55:14.921Z,95835.30
2018-11-01T17:57:43.762Z,95837.94
2018-11-01T18:00:14.359Z,95847.64
2018-11-01T18:02:43.335Z,95850.77
2018-11-01T18:05:12.480Z,95868.36
2018-11-01T18:07:41.597Z,95865.19
2018-11-01T18:10:11.530Z,95874.66
2018-11-01T18:12:40.066Z,95876.92
2018-11-01T18:15:09.023Z,95873.95
2018-11-01T18:17:55.927Z,95878.03
2018-11-01T18:20:24.454Z,95880.41
2018-11-01T18:22:53.036Z,95886.39
2018-11-01T18:25:21.609Z,95885.03
2018-11-01T18:27:50.163Z,95886.80
2018-11-01T18:30:18.689Z,95883.30
2018-11-01T18:32:47.399Z,95890.73
2018-11-01T18:35:15.814Z,95907.73
2018-11-01T18:37:44.601Z,95906.41
2018-11-01T18:40:15.205Z,95896.77
2018-11-01T18:42:43.781Z,95902.34
2018-11-01T18:45:13.571Z,95908.83
2018-11-01T18:47:42.859Z,95902.63
2018-11-01T18:50:12.716Z,95897.07
2018-11-01T18:52:41.626Z,95911.77
2018-11-01T18:55:11.427Z,95904.12
2018-11-01T18:57:40.021Z,95916.25
2018-11-01T19:00:11.165Z,95911.09
2018-11-01T19:05:08.295Z,95895.77
2018-11-01T19:07:36.840Z,95902.69
2018-11-01T19:10:06.178Z,95910.89
2018-11-01T19:12:34.703Z,95908.31
2018-11-01T19:15:03.231Z,95905.97
2018-11-01T19:17:31.765Z,95909.64
2018-11-01T19:20:00.559Z,95897.57
2018-11-01T19:22:29.095Z,95901.44
2018-11-01T19:24:57.598Z,95903.73
2018-11-01T19:27:26.397Z,95913.44
2018-11-01T19:29:54.967Z,95913.13
2018-11-01T19:32:23.548Z,95916.94
2018-11-01T19:34:52.116Z,95914.51
2018-11-01T19:37:20.626Z,95905.19
2018-11-01T19:39:49.199Z,95910.96
2018-11-01T19:42:17.671Z,95922.34
2018-11-01T19:44:46.182Z,95924.23
2018-11-01T19:47:14.687Z,95931.36
2018-11-01T19:49:43.200Z,95934.70
2018-11-01T19:52:11.703Z,95922.65
2018-11-01T19:54:40.307Z,95919.48
2018-11-01T19:57:08.766Z,95924.70
2018-11-01T19:59:37.258Z,95922.73
2018-11-01T20:02:06.324Z,95927.59
2018-11-01T20:04:34.819Z,95927.52
2018-11-01T20:07:03.485Z,95917.23
2018-11-01T20:12:25.011Z,95925.73
2018-11-01T20:14:53.852Z,95933.25
2018-11-01T20:17:22.278Z,95923.09
2018-11-01T20:19:50.808Z,95927.80
2018-11-01T20:22:19.432Z,95930.96
2018-11-01T20:24:47.953Z,95938.33
2018-11-01T20:27:16.487Z,95936.95
2018-11-01T20:29:45.013Z,95939.45
2018-11-01T20:32:13.527Z,95938.02
2018-11-01T20:34:42.013Z,95945.42
2018-11-01T20:37:10.543Z,95950.28
2018-11-01T20:39:39.054Z,95951.50
2018-11-01T20:42:07.733Z,95944.00
2018-11-01T20:44:36.255Z,95949.50
2018-11-01T20:47:04.936Z,95947.98
2018-11-01T20:49:33.452Z,95950.39
2018-11-01T20:52:01.996Z,95944.56
2018-11-01T20:54:30.780Z,95938.87
2018-11-01T20:56:59.314Z,95933.66
2018-11-01T20:59:27.813Z,95921.17
2018-11-01T21:01:56.456Z,95928.69
2018-11-01T21:04:24.970Z,95929.87
2018-11-01T21:06:53.505Z,95933.13
2018-11-01T21:09:22.002Z,95936.55
2018-11-01T21:11:50.645Z,95944.27
2018-11-01T21:14:19.059Z,95949.56
2018-11-01T21:16:47.577Z,95946.17
2018-11-01T21:19:16.136Z,95935.95
2018-11-01T21:21:44.663Z,95944.46
2018-11-01T21:24:13.166Z,95953.83
2018-11-01T21:26:41.702Z,95959.48
2018-11-01T21:29:10.253Z,95968.52
2018-11-01T21:31:38.777Z,95971.77
2018-11-01T21:34:07.294Z,95972.62
2018-11-01T21:36:35.823Z,95972.84
2018-11-01T21:39:06.646Z,95973.16
2018-11-01T21:41:35.202Z,95971.05
2018-11-01T21:44:03.794Z,95975.95
2018-11-01T21:46:32.349Z,95968.58
2018-11-01T21:49:00.995Z,95963.23
2018-11-01T21:51:29.530Z,95958.50
2018-11-01T21:54:00.660Z,95967.16
2018-11-01T21:56:29.141Z,95974.22
2018-11-01T21:58:58.678Z,95983.34
2018-11-01T22:01:27.442Z,95983.22
2018-11-01T22:03:57.452Z,95982.29
2018-11-01T22:06:25.967Z,95977.73
2018-11-01T22:08:54.617Z,95976.81
2018-11-01T22:11:23.134Z,95977.16
2018-11-01T22:13:51.652Z,95976.94
2018-11-01T22:16:20.184Z,95983.09
2018-11-01T22:18:48.724Z,95993.52
2018-11-01T22:21:17.225Z,95990.08
2018-11-01T22:23:45.754Z,96004.66
2018-11-01T22:26:14.272Z,96006.25
2018-11-01T22:28:42.882Z,96008.68
2018-11-01T22:31:11.364Z,96018.97
2018-11-01T22:33:39.850Z,96040.45
2018-11-01T22:36:08.355Z,96027.61
2018-11-01T22:38:36.930Z,96033.95
2018-11-01T22:41:05.518Z,96036.02
2018-11-01T22:43:34.030Z,96038.50
2018-11-01T22:46:02.586Z,96036.76
2018-11-01T22:48:31.131Z,96038.45
2018-11-01T22:50:59.766Z,96037.86
2018-11-01T22:53:28.282Z,96048.62
2018-11-01T22:55:56.813Z,96035.84
2018-11-01T22:58:25.310Z,96047.63
2018-11-01T23:00:53.833Z,96049.84
2018-11-01T23:03:22.371Z,96051.13
2018-11-01T23:05:50.870Z,96048.69
2018-11-01T23:08:19.382Z,96048.36
2018-11-01T23:10:47.886Z,96038.53
2018-11-01T23:13:16.391Z,96039.20
2018-11-01T23:15:44.904Z,96038.15
2018-11-01T23:18:13.431Z,96039.44
2018-11-01T23:20:41.945Z,96042.65
2018-11-01T23:23:10.441Z,96049.10
2018-11-01T23:25:38.972Z,96054.70
2018-11-01T23:28:07.507Z,96051.11
2018-11-01T23:30:36.018Z,96063.52
2018-11-01T23:33:04.763Z,96067.30
2018-11-01T23:35:33.227Z,96069.94
2018-11-01T23:38:06.798Z,96070.03
2018-11-01T23:40:40.488Z,96066.34
2018-11-01T23:43:14.434Z,96071.51
2018-11-01T23:45:48.227Z,96079.19
2018-11-01T23:48:15.854Z,96089.81
2018-11-01T23:51:19.015Z,96095.55
2018-11-01T23:53:49.475Z,96094.26
2018-11-01T23:56:18.438Z,96091.45
2018-11-01T23:58:47.214Z,96091.26
